sensor_id;sensor_type;location;lat;lon;timestamp;pressure;altitude;pressure_sealevel;temperature;humidity
33731;BME280;22931;48.636;9.000;2023-03-23T18:08:05;95384.56;;;18.51;43.90
33731;BME280;22931;48.636;9.000;2023-03-23T18:13:13;95377.78;;;18.47;43.16
33731;BME280;22931;48.636;9.000;2023-03-23T18:18:21;95388.50;;;18.36;43.26
33731;BME280;22931;48.636;9.000;2023-03-23T18:23:32;95375.69;;;18.24;43.85
33731;BME280;22931;48.636;9.000;2023-03-23T18:28:50;95393.28;;;18.11;43.70
33731;BME280;22931;48.636;9.000;2023-03-23T18:33:58;95376.25;;;18.01;43.98
33731;BME280;22931;48.636;9.000;2023-03-23T18:39:08;95390.41;;;17.95;44.25
33731;BME280;22931;48.636;9.000;2023-03-23T18:44:17;95380.22;;;17.83;43.95
33731;BME280;22931;48.636;9.000;2023-03-23T18:49:25;95391.28;;;17.77;44.16
33731;BME280;22931;48.636;9.000;2023-03-23T18:54:36;95389.03;;;17.72;44.51
33731;BME280;22931;48.636;9.000;2023-03-23T18:59:45;95392.13;;;17.67;44.19
33731;BME280;22931;48.636;9.000;2023-03-23T19:04:53;95395.19;;;17.66;44.25
33731;BME280;22931;48.636;9.000;2023-03-23T19:10:04;95388.34;;;17.65;44.51
33731;BME280;22931;48.636;9.000;2023-03-23T19:15:13;95399.78;;;17.62;44.29
33731;BME280;22931;48.636;9.000;2023-03-23T19:20:21;95395.25;;;17.59;44.66
33731;BME280;22931;48.636;9.000;2023-03-23T19:25:53;95398.66;;;17.56;44.94
33731;BME280;22931;48.636;9.000;2023-03-23T19:31:01;95394.88;;;17.50;44.78
33731;BME280;22931;48.636;9.000;2023-03-23T19:36:09;95408.97;;;17.43;44.71
33731;BME280;22931;48.636;9.000;2023-03-23T19:41:20;95397.22;;;17.41;44.99
33731;BME280;22931;48.636;9.000;2023-03-23T19:46:29;95400.69;;;17.34;45.12
33731;BME280;22931;48.636;9.000;2023-03-23T19:51:39;95386.16;;;17.49;44.58
33731;BME280;22931;48.636;9.000;2023-03-23T19:56:49;95380.94;;;17.28;45.97
33731;BME280;22931;48.636;9.000;2023-03-23T20:01:57;95381.75;;;17.22;45.30
33731;BME280;22931;48.636;9.000;2023-03-23T20:07:06;95371.16;;;17.18;45.58
33731;BME280;22931;48.636;9.000;2023-03-23T20:12:16;95373.81;;;17.14;45.87
33731;BME280;22931;48.636;9.000;2023-03-23T20:17:24;95376.50;;;17.07;45.89
33731;BME280;22931;48.636;9.000;2023-03-23T20:22:32;95367.41;;;17.05;45.72
33731;BME280;22931;48.636;9.000;2023-03-23T20:27:43;95371.19;;;17.07;45.79
33731;BME280;22931;48.636;9.000;2023-03-23T20:32:51;95366.66;;;17.04;45.41
33731;BME280;22931;48.636;9.000;2023-03-23T20:38:01;95366.28;;;17.02;45.05
33731;BME280;22931;48.636;9.000;2023-03-23T20:43:12;95365.50;;;17.02;45.54
33731;BME280;22931;48.636;9.000;2023-03-23T20:48:20;95356.81;;;16.98;45.52
33731;BME280;22931;48.636;9.000;2023-03-23T20:53:29;95348.47;;;16.96;45.62
33731;BME280;22931;48.636;9.000;2023-03-23T20:58:40;95343.53;;;16.98;45.31
33731;BME280;22931;48.636;9.000;2023-03-23T21:03:49;95349.97;;;16.97;45.42
33731;BME280;22931;48.636;9.000;2023-03-23T21:08:57;95340.09;;;16.94;45.87
33731;BME280;22931;48.636;9.000;2023-03-23T21:14:08;95337.84;;;16.96;45.67
33731;BME280;22931;48.636;9.000;2023-03-23T21:19:16;95337.09;;;16.92;45.56
33731;BME280;22931;48.636;9.000;2023-03-23T21:24:27;95322.66;;;16.93;45.73
33731;BME280;22931;48.636;9.000;2023-03-23T21:29:38;95323.03;;;16.95;45.67
33731;BME280;22931;48.636;9.000;2023-03-23T21:34:46;95311.63;;;16.94;45.91
33731;BME280;22931;48.636;9.000;2023-03-23T21:39:54;95303.66;;;16.94;45.72
33731;BME280;22931;48.636;9.000;2023-03-23T21:45:04;95302.13;;;16.97;45.54
33731;BME280;22931;48.636;9.000;2023-03-23T21:50:13;95298.75;;;16.93;45.80
33731;BME280;22931;48.636;9.000;2023-03-23T21:55:21;95280.13;;;16.93;45.66
33731;BME280;22931;48.636;9.000;2023-03-23T22:00:35;95275.19;;;16.95;46.00
33731;BME280;22931;48.636;9.000;2023-03-23T22:05:44;95269.50;;;16.93;45.69
33731;BME280;22931;48.636;9.000;2023-03-23T22:10:58;95261.16;;;16.91;46.16
33731;BME280;22931;48.636;9.000;2023-03-23T22:16:10;95248.28;;;16.86;45.77
33731;BME280;22931;48.636;9.000;2023-03-23T22:21:22;95232.75;;;16.81;46.00
33731;BME280;22931;48.636;9.000;2023-03-23T22:26:31;95220.22;;;16.81;45.86
33731;BME280;22931;48.636;9.000;2023-03-23T22:31:42;95217.53;;;16.85;45.93
33731;BME280;22931;48.636;9.000;2023-03-23T22:36:50;95216.41;;;16.82;46.03
33731;BME280;22931;48.636;9.000;2023-03-23T22:41:59;95209.63;;;16.78;45.89
33731;BME280;22931;48.636;9.000;2023-03-23T22:47:10;95197.84;;;16.79;46.15
33731;BME280;22931;48.636;9.000;2023-03-23T22:52:17;95195.19;;;16.79;45.97
33731;BME280;22931;48.636;9.000;2023-03-23T22:57:25;95197.09;;;16.75;46.09
33731;BME280;22931;48.636;9.000;2023-03-23T23:02:36;95193.31;;;16.76;46.37
33731;BME280;22931;48.636;9.000;2023-03-23T23:07:46;95184.97;;;16.74;46.32
33731;BME280;22931;48.636;9.000;2023-03-23T23:12:55;95202.06;;;16.73;46.33
33731;BME280;22931;48.636;9.000;2023-03-23T23:18:07;95216.09;;;16.77;46.59
33731;BME280;22931;48.636;9.000;2023-03-23T23:23:16;95227.50;;;16.74;46.44
33731;BME280;22931;48.636;9.000;2023-03-23T23:28:25;95244.59;;;16.66;46.27
33731;BME280;22931;48.636;9.000;2023-03-23T23:33:35;95241.63;;;16.57;47.35
33731;BME280;22931;48.636;9.000;2023-03-23T23:38:43;95231.38;;;16.48;47.13
33731;BME280;22931;48.636;9.000;2023-03-23T23:43:51;95217.78;;;16.42;47.55
33731;BME280;22931;48.636;9.000;2023-03-23T23:49:02;95211.72;;;16.38;48.28
33731;BME280;22931;48.636;9.000;2023-03-23T23:54:10;95197.69;;;16.34;47.52
33731;BME280;22931;48.636;9.000;2023-03-23T23:59:18;95198.47;;;16.31;47.55
